sensor_id;sensor_type;location;lat;lon;timestamp;P1;durP1;ratioP1;P2;durP2;ratioP2
21991;SDS011;11160;51.576;0.194;2022-08-01T00:01:27;118.88;;;112.85;;
21991;SDS011;11160;51.576;0.194;2022-08-01T00:03:54;118.75;;;112.78;;
21991;SDS011;11160;51.576;0.194;2022-08-01T00:06:22;118.72;;;112.68;;
21991;SDS011;11160;51.576;0.194;2022-08-01T00:08:49;117.47;;;111.35;;
21991;SDS011;11160;51.576;0.194;2022-08-01T00:11:16;116.78;;;110.88;;
21991;SDS011;11160;51.576;0.194;2022-08-01T00:13:44;111.68;;;105.95;;
21991;SDS011;11160;51.576;0.194;2022-08-01T00:16:11;119.88;;;113.78;;
21991;SDS011;11160;51.576;0.194;2022-08-01T00:18:39;117.70;;;111.63;;
21991;SDS011;11160;51.576;0.194;2022-08-01T00:21:06;118.60;;;112.55;;
21991;SDS011;11160;51.576;0.194;2022-08-01T00:23:33;111.38;;;105.60;;
21991;SDS011;11160;51.576;0.194;2022-08-01T00:26:01;114.18;;;108.30;;
21991;SDS011;11160;51.576;0.194;2022-08-01T00:28:28;111.25;;;105.60;;
21991;SDS011;11160;51.576;0.194;2022-08-01T00:30:56;114.05;;;108.22;;
21991;SDS011;11160;51.576;0.194;2022-08-01T00:33:23;112.00;;;106.38;;
21991;SDS011;11160;51.576;0.194;2022-08-01T00:35:51;114.85;;;108.97;;
21991;SDS011;11160;51.576;0.194;2022-08-01T00:38:18;111.38;;;105.65;;
21991;SDS011;11160;51.576;0.194;2022-08-01T00:40:46;109.90;;;104.25;;
21991;SDS011;11160;51.576;0.194;2022-08-01T00:43:14;105.57;;;100.18;;
21991;SDS011;11160;51.576;0.194;2022-08-01T00:45:41;110.93;;;105.25;;
21991;SDS011;11160;51.576;0.194;2022-08-01T00:48:09;113.18;;;107.50;;
21991;SDS011;11160;51.576;0.194;2022-08-01T00:50:36;115.50;;;109.55;;
21991;SDS011;11160;51.576;0.194;2022-08-01T00:53:04;109.93;;;104.35;;
21991;SDS011;11160;51.576;0.194;2022-08-01T00:55:32;114.43;;;108.60;;
21991;SDS011;11160;51.576;0.194;2022-08-01T00:58:01;111.88;;;106.15;;
21991;SDS011;11160;51.576;0.194;2022-08-01T01:00:32;109.18;;;103.50;;
21991;SDS011;11160;51.576;0.194;2022-08-01T01:03:20;114.43;;;108.63;;
21991;SDS011;11160;51.576;0.194;2022-08-01T01:14:41;111.00;;;105.43;;
21991;SDS011;11160;51.576;0.194;2022-08-01T01:17:19;104.55;;;99.30;;
21991;SDS011;11160;51.576;0.194;2022-08-01T01:20:13;113.65;;;107.85;;
21991;SDS011;11160;51.576;0.194;2022-08-01T01:30:54;109.68;;;104.15;;
21991;SDS011;11160;51.576;0.194;2022-08-01T01:33:25;106.15;;;100.78;;
21991;SDS011;11160;51.576;0.194;2022-08-01T01:36:12;111.75;;;106.18;;
21991;SDS011;11160;51.576;0.194;2022-08-01T01:38:41;99.75;;;94.70;;
21991;SDS011;11160;51.576;0.194;2022-08-01T01:41:11;103.75;;;98.47;;
21991;SDS011;11160;51.576;0.194;2022-08-01T01:46:10;111.18;;;105.72;;
21991;SDS011;11160;51.576;0.194;2022-08-01T01:48:43;109.53;;;104.03;;
21991;SDS011;11160;51.576;0.194;2022-08-01T01:53:40;102.82;;;97.78;;
21991;SDS011;11160;51.576;0.194;2022-08-01T01:56:09;111.70;;;106.05;;
21991;SDS011;11160;51.576;0.194;2022-08-01T01:58:38;110.65;;;104.95;;
21991;SDS011;11160;51.576;0.194;2022-08-01T02:01:06;107.55;;;102.03;;
21991;SDS011;11160;51.576;0.194;2022-08-01T02:03:41;109.57;;;103.97;;
21991;SDS011;11160;51.576;0.194;2022-08-01T02:06:11;110.60;;;105.00;;
21991;SDS011;11160;51.576;0.194;2022-08-01T02:08:42;98.88;;;93.80;;
21991;SDS011;11160;51.576;0.194;2022-08-01T02:11:11;102.55;;;97.32;;
21991;SDS011;11160;51.576;0.194;2022-08-01T02:13:46;111.05;;;105.38;;
21991;SDS011;11160;51.576;0.194;2022-08-01T02:16:26;113.22;;;107.45;;
21991;SDS011;11160;51.576;0.194;2022-08-01T02:19:02;102.88;;;97.63;;
21991;SDS011;11160;51.576;0.194;2022-08-01T02:21:30;105.68;;;100.22;;
21991;SDS011;11160;51.576;0.194;2022-08-01T02:24:24;108.53;;;103.05;;
21991;SDS011;11160;51.576;0.194;2022-08-01T02:27:01;109.13;;;103.70;;
21991;SDS011;11160;51.576;0.194;2022-08-01T02:29:41;106.10;;;100.72;;
21991;SDS011;11160;51.576;0.194;2022-08-01T02:32:24;108.60;;;103.13;;
21991;SDS011;11160;51.576;0.194;2022-08-01T02:34:56;109.15;;;103.63;;
21991;SDS011;11160;51.576;0.194;2022-08-01T02:37:26;101.72;;;96.55;;
21991;SDS011;11160;51.576;0.194;2022-08-01T02:40:00;92.80;;;88.05;;
21991;SDS011;11160;51.576;0.194;2022-08-01T02:42:28;95.53;;;90.65;;
21991;SDS011;11160;51.576;0.194;2022-08-01T02:44:58;103.30;;;98.10;;
21991;SDS011;11160;51.576;0.194;2022-08-01T02:47:28;98.22;;;93.18;;
21991;SDS011;11160;51.576;0.194;2022-08-01T02:52:45;101.20;;;96.10;;
21991;SDS011;11160;51.576;0.194;2022-08-01T02:55:16;97.40;;;92.47;;
21991;SDS011;11160;51.576;0.194;2022-08-01T02:57:46;96.33;;;91.43;;
21991;SDS011;11160;51.576;0.194;2022-08-01T03:00:18;84.72;;;80.32;;
21991;SDS011;11160;51.576;0.194;2022-08-01T03:02:50;92.05;;;87.32;;
21991;SDS011;11160;51.576;0.194;2022-08-01T03:05:21;97.40;;;92.47;;
21991;SDS011;11160;51.576;0.194;2022-08-01T03:07:51;89.68;;;85.07;;
21991;SDS011;11160;51.576;0.194;2022-08-01T03:10:20;91.72;;;87.03;;
21991;SDS011;11160;51.576;0.194;2022-08-01T03:12:49;102.25;;;97.03;;
21991;SDS011;11160;51.576;0.194;2022-08-01T03:15:17;93.07;;;88.40;;
21991;SDS011;11160;51.576;0.194;2022-08-01T03:17:46;93.00;;;88.22;;
21991;SDS011;11160;51.576;0.194;2022-08-01T03:20:16;95.13;;;90.28;;
21991;SDS011;11160;51.576;0.194;2022-08-01T03:22:47;92.75;;;87.85;;
21991;SDS011;11160;51.576;0.194;2022-08-01T03:25:19;90.75;;;86.05;;
21991;SDS011;11160;51.576;0.194;2022-08-01T03:27:50;94.57;;;89.70;;
21991;SDS011;11160;51.576;0.194;2022-08-01T03:30:25;103.65;;;98.40;;
21991;SDS011;11160;51.576;0.194;2022-08-01T03:32:53;85.95;;;81.55;;
21991;SDS011;11160;51.576;0.194;2022-08-01T03:35:22;96.40;;;91.45;;
21991;SDS011;11160;51.576;0.194;2022-08-01T03:37:53;93.85;;;89.03;;
21991;SDS011;11160;51.576;0.194;2022-08-01T03:40:49;93.25;;;88.50;;
21991;SDS011;11160;51.576;0.194;2022-08-01T03:43:30;93.28;;;88.53;;
21991;SDS011;11160;51.576;0.194;2022-08-01T03:46:04;96.77;;;91.90;;
21991;SDS011;11160;51.576;0.194;2022-08-01T03:48:35;91.15;;;86.50;;
21991;SDS011;11160;51.576;0.194;2022-08-01T03:51:07;92.53;;;87.70;;
21991;SDS011;11160;51.576;0.194;2022-08-01T03:53:35;84.45;;;80.07;;
21991;SDS011;11160;51.576;0.194;2022-08-01T03:56:07;89.90;;;85.15;;
21991;SDS011;11160;51.576;0.194;2022-08-01T03:58:38;79.80;;;75.63;;
21991;SDS011;11160;51.576;0.194;2022-08-01T04:01:08;92.90;;;88.15;;
21991;SDS011;11160;51.576;0.194;2022-08-01T04:03:42;90.10;;;85.43;;
21991;SDS011;11160;51.576;0.194;2022-08-01T04:06:10;84.78;;;80.30;;
21991;SDS011;11160;51.576;0.194;2022-08-01T04:08:39;95.15;;;90.30;;
21991;SDS011;11160;51.576;0.194;2022-08-01T04:11:07;97.75;;;92.75;;
21991;SDS011;11160;51.576;0.194;2022-08-01T04:13:36;94.95;;;90.10;;
21991;SDS011;11160;51.576;0.194;2022-08-01T04:16:04;92.97;;;88.15;;
21991;SDS011;11160;51.576;0.194;2022-08-01T04:18:31;90.78;;;86.05;;
21991;SDS011;11160;51.576;0.194;2022-08-01T04:20:58;83.57;;;79.20;;
21991;SDS011;11160;51.576;0.194;2022-08-01T04:23:26;86.57;;;82.07;;
21991;SDS011;11160;51.576;0.194;2022-08-01T04:25:57;88.70;;;84.10;;
21991;SDS011;11160;51.576;0.194;2022-08-01T04:30:57;89.70;;;85.22;;
21991;SDS011;11160;51.576;0.194;2022-08-01T04:33:28;82.80;;;78.55;;
21991;SDS011;11160;51.576;0.194;2022-08-01T04:35:58;95.87;;;91.03;;
21991;SDS011;11160;51.576;0.194;2022-08-01T04:38:30;91.32;;;86.65;;
21991;SDS011;11160;51.576;0.194;2022-08-01T04:41:03;86.22;;;81.82;;
21991;SDS011;11160;51.576;0.194;2022-08-01T04:43:35;84.68;;;80.32;;
21991;SDS011;11160;51.576;0.194;2022-08-01T04:46:03;84.00;;;79.65;;
21991;SDS011;11160;51.576;0.194;2022-08-01T04:48:37;82.68;;;78.38;;
21991;SDS011;11160;51.576;0.194;2022-08-01T04:51:12;83.68;;;79.35;;
21991;SDS011;11160;51.576;0.194;2022-08-01T04:53:44;74.78;;;70.95;;
21991;SDS011;11160;51.576;0.194;2022-08-01T04:58:42;87.15;;;82.85;;
21991;SDS011;11160;51.576;0.194;2022-08-01T05:01:10;82.28;;;78.13;;
21991;SDS011;11160;51.576;0.194;2022-08-01T05:03:37;75.18;;;71.28;;
21991;SDS011;11160;51.576;0.194;2022-08-01T05:06:05;80.68;;;76.55;;
21991;SDS011;11160;51.576;0.194;2022-08-01T05:08:32;76.13;;;72.15;;
21991;SDS011;11160;51.576;0.194;2022-08-01T05:10:59;82.85;;;78.50;;
21991;SDS011;11160;51.576;0.194;2022-08-01T05:13:27;81.78;;;77.55;;
21991;SDS011;11160;51.576;0.194;2022-08-01T05:15:54;81.55;;;77.32;;
21991;SDS011;11160;51.576;0.194;2022-08-01T05:18:21;71.80;;;68.05;;
21991;SDS011;11160;51.576;0.194;2022-08-01T05:20:53;80.13;;;76.00;;
21991;SDS011;11160;51.576;0.194;2022-08-01T05:23:21;70.88;;;67.15;;
21991;SDS011;11160;51.576;0.194;2022-08-01T05:26:08;77.63;;;73.57;;
21991;SDS011;11160;51.576;0.194;2022-08-01T05:28:36;77.53;;;73.47;;
21991;SDS011;11160;51.576;0.194;2022-08-01T05:31:03;73.68;;;69.82;;
21991;SDS011;11160;51.576;0.194;2022-08-01T05:33:30;67.90;;;64.32;;
21991;SDS011;11160;51.576;0.194;2022-08-01T05:35:57;77.03;;;73.00;;
21991;SDS011;11160;51.576;0.194;2022-08-01T05:38:25;76.43;;;72.47;;
21991;SDS011;11160;51.576;0.194;2022-08-01T05:40:52;81.10;;;76.90;;
21991;SDS011;11160;51.576;0.194;2022-08-01T05:43:19;74.93;;;70.93;;
21991;SDS011;11160;51.576;0.194;2022-08-01T05:45:53;76.32;;;72.38;;
21991;SDS011;11160;51.576;0.194;2022-08-01T05:48:20;75.10;;;71.13;;
21991;SDS011;11160;51.576;0.194;2022-08-01T05:50:47;78.45;;;74.35;;
21991;SDS011;11160;51.576;0.194;2022-08-01T05:53:16;76.47;;;72.47;;
21991;SDS011;11160;51.576;0.194;2022-08-01T05:55:43;82.28;;;77.93;;
21991;SDS011;11160;51.576;0.194;2022-08-01T05:58:10;75.18;;;71.25;;
21991;SDS011;11160;51.576;0.194;2022-08-01T06:00:38;83.43;;;79.10;;
21991;SDS011;11160;51.576;0.194;2022-08-01T06:03:05;84.93;;;80.50;;
21991;SDS011;11160;51.576;0.194;2022-08-01T06:05:32;82.55;;;78.20;;
21991;SDS011;11160;51.576;0.194;2022-08-01T06:07:59;80.30;;;76.07;;
21991;SDS011;11160;51.576;0.194;2022-08-01T06:10:26;81.50;;;77.15;;
21991;SDS011;11160;51.576;0.194;2022-08-01T06:12:53;81.57;;;77.32;;
21991;SDS011;11160;51.576;0.194;2022-08-01T06:15:21;74.68;;;70.78;;
21991;SDS011;11160;51.576;0.194;2022-08-01T06:17:48;76.45;;;72.35;;
21991;SDS011;11160;51.576;0.194;2022-08-01T06:20:15;77.57;;;73.45;;
21991;SDS011;11160;51.576;0.194;2022-08-01T06:22:42;76.30;;;72.35;;
21991;SDS011;11160;51.576;0.194;2022-08-01T06:25:09;76.57;;;72.57;;
21991;SDS011;11160;51.576;0.194;2022-08-01T06:27:36;77.95;;;73.88;;
21991;SDS011;11160;51.576;0.194;2022-08-01T06:30:04;76.80;;;72.72;;
21991;SDS011;11160;51.576;0.194;2022-08-01T06:32:33;84.90;;;80.50;;
21991;SDS011;11160;51.576;0.194;2022-08-01T06:35:00;78.07;;;73.93;;
21991;SDS011;11160;51.576;0.194;2022-08-01T06:37:31;74.28;;;70.30;;
21991;SDS011;11160;51.576;0.194;2022-08-01T06:40:05;78.45;;;74.28;;
21991;SDS011;11160;51.576;0.194;2022-08-01T06:42:41;72.03;;;68.18;;
21991;SDS011;11160;51.576;0.194;2022-08-01T06:45:11;74.07;;;70.10;;
21991;SDS011;11160;51.576;0.194;2022-08-01T06:47:39;64.72;;;61.15;;
21991;SDS011;11160;51.576;0.194;2022-08-01T06:50:08;74.40;;;70.30;;
21991;SDS011;11160;51.576;0.194;2022-08-01T06:52:37;75.53;;;71.27;;
21991;SDS011;11160;51.576;0.194;2022-08-01T06:55:04;83.55;;;78.93;;
21991;SDS011;11160;51.576;0.194;2022-08-01T06:57:32;89.00;;;84.05;;
21991;SDS011;11160;51.576;0.194;2022-08-01T07:00:06;89.40;;;84.55;;
21991;SDS011;11160;51.576;0.194;2022-08-01T07:02:38;98.38;;;92.88;;
21991;SDS011;11160;51.576;0.194;2022-08-01T07:05:05;87.95;;;83.07;;
21991;SDS011;11160;51.576;0.194;2022-08-01T07:07:32;83.03;;;78.53;;
21991;SDS011;11160;51.576;0.194;2022-08-01T07:10:00;91.47;;;86.57;;
21991;SDS011;11160;51.576;0.194;2022-08-01T07:12:27;102.43;;;96.88;;
21991;SDS011;11160;51.576;0.194;2022-08-01T07:14:58;122.03;;;115.32;;
21991;SDS011;11160;51.576;0.194;2022-08-01T07:17:25;106.13;;;100.35;;
21991;SDS011;11160;51.576;0.194;2022-08-01T07:19:52;96.05;;;90.90;;
21991;SDS011;11160;51.576;0.194;2022-08-01T07:22:23;94.50;;;89.30;;
21991;SDS011;11160;51.576;0.194;2022-08-01T07:24:52;111.15;;;105.25;;
21991;SDS011;11160;51.576;0.194;2022-08-01T07:27:20;108.25;;;102.60;;
21991;SDS011;11160;51.576;0.194;2022-08-01T07:29:52;122.53;;;116.22;;
21991;SDS011;11160;51.576;0.194;2022-08-01T07:32:19;111.70;;;105.95;;
21991;SDS011;11160;51.576;0.194;2022-08-01T07:34:46;105.88;;;100.47;;
21991;SDS011;11160;51.576;0.194;2022-08-01T07:37:13;93.60;;;88.80;;
21991;SDS011;11160;51.576;0.194;2022-08-01T07:39:41;105.90;;;100.50;;
21991;SDS011;11160;51.576;0.194;2022-08-01T07:42:08;113.72;;;107.93;;
21991;SDS011;11160;51.576;0.194;2022-08-01T07:44:35;101.55;;;96.43;;
21991;SDS011;11160;51.576;0.194;2022-08-01T07:47:04;107.38;;;101.85;;
21991;SDS011;11160;51.576;0.194;2022-08-01T07:49:32;108.72;;;103.13;;
21991;SDS011;11160;51.576;0.194;2022-08-01T07:52:05;131.40;;;124.68;;
21991;SDS011;11160;51.576;0.194;2022-08-01T07:54:32;118.55;;;112.57;;
21991;SDS011;11160;51.576;0.194;2022-08-01T07:57:01;107.80;;;102.35;;
21991;SDS011;11160;51.576;0.194;2022-08-01T07:59:29;112.05;;;106.35;;
21991;SDS011;11160;51.576;0.194;2022-08-01T08:01:57;107.45;;;101.97;;
21991;SDS011;11160;51.576;0.194;2022-08-01T08:04:25;104.07;;;98.80;;
21991;SDS011;11160;51.576;0.194;2022-08-01T08:06:52;123.72;;;117.32;;
21991;SDS011;11160;51.576;0.194;2022-08-01T08:09:20;119.30;;;113.20;;
21991;SDS011;11160;51.576;0.194;2022-08-01T08:11:47;117.40;;;111.43;;
21991;SDS011;11160;51.576;0.194;2022-08-01T08:14:15;126.65;;;120.20;;
21991;SDS011;11160;51.576;0.194;2022-08-01T08:16:44;109.05;;;103.43;;
21991;SDS011;11160;51.576;0.194;2022-08-01T08:19:13;116.28;;;110.22;;
21991;SDS011;11160;51.576;0.194;2022-08-01T08:21:40;114.13;;;108.18;;
21991;SDS011;11160;51.576;0.194;2022-08-01T08:24:08;113.60;;;107.53;;
21991;SDS011;11160;51.576;0.194;2022-08-01T08:26:56;111.82;;;105.90;;
21991;SDS011;11160;51.576;0.194;2022-08-01T08:29:24;99.72;;;94.28;;
21991;SDS011;11160;51.576;0.194;2022-08-01T08:31:52;92.25;;;87.32;;
21991;SDS011;11160;51.576;0.194;2022-08-01T08:34:23;100.60;;;95.28;;
21991;SDS011;11160;51.576;0.194;2022-08-01T08:36:51;88.32;;;83.57;;
21991;SDS011;11160;51.576;0.194;2022-08-01T08:39:21;98.90;;;93.65;;
21991;SDS011;11160;51.576;0.194;2022-08-01T08:41:48;79.43;;;75.10;;
21991;SDS011;11160;51.576;0.194;2022-08-01T08:44:16;69.45;;;65.68;;
21991;SDS011;11160;51.576;0.194;2022-08-01T08:46:44;79.05;;;74.63;;
21991;SDS011;11160;51.576;0.194;2022-08-01T08:49:19;74.53;;;70.43;;
21991;SDS011;11160;51.576;0.194;2022-08-01T08:51:49;74.38;;;70.32;;
21991;SDS011;11160;51.576;0.194;2022-08-01T08:54:17;65.60;;;62.03;;
21991;SDS011;11160;51.576;0.194;2022-08-01T08:56:47;78.95;;;74.57;;
21991;SDS011;11160;51.576;0.194;2022-08-01T08:59:15;80.25;;;75.85;;
21991;SDS011;11160;51.576;0.194;2022-08-01T09:01:42;87.30;;;82.30;;
21991;SDS011;11160;51.576;0.194;2022-08-01T09:04:10;78.97;;;74.70;;
21991;SDS011;11160;51.576;0.194;2022-08-01T09:06:38;75.32;;;71.28;;
21991;SDS011;11160;51.576;0.194;2022-08-01T09:09:07;80.18;;;75.85;;
21991;SDS011;11160;51.576;0.194;2022-08-01T09:11:36;93.60;;;88.50;;
21991;SDS011;11160;51.576;0.194;2022-08-01T09:14:11;82.40;;;78.00;;
21991;SDS011;11160;51.576;0.194;2022-08-01T09:16:42;80.30;;;75.95;;
21991;SDS011;11160;51.576;0.194;2022-08-01T09:19:18;99.97;;;94.53;;
21991;SDS011;11160;51.576;0.194;2022-08-01T09:22:08;88.80;;;83.95;;
21991;SDS011;11160;51.576;0.194;2022-08-01T09:24:41;76.72;;;72.53;;
21991;SDS011;11160;51.576;0.194;2022-08-01T09:27:16;95.10;;;89.88;;
21991;SDS011;11160;51.576;0.194;2022-08-01T09:29:48;115.83;;;109.43;;
21991;SDS011;11160;51.576;0.194;2022-08-01T09:32:30;100.75;;;95.07;;
21991;SDS011;11160;51.576;0.194;2022-08-01T09:40:46;101.85;;;96.25;;
21991;SDS011;11160;51.576;0.194;2022-08-01T09:43:27;110.47;;;103.80;;
21991;SDS011;11160;51.576;0.194;2022-08-01T09:45:57;120.82;;;113.85;;
21991;SDS011;11160;51.576;0.194;2022-08-01T09:48:25;121.35;;;114.50;;
21991;SDS011;11160;51.576;0.194;2022-08-01T09:50:56;120.60;;;113.85;;
21991;SDS011;11160;51.576;0.194;2022-08-01T09:53:43;116.70;;;110.25;;
21991;SDS011;11160;51.576;0.194;2022-08-01T09:56:19;121.95;;;114.97;;
21991;SDS011;11160;51.576;0.194;2022-08-01T09:59:01;117.72;;;111.22;;
21991;SDS011;11160;51.576;0.194;2022-08-01T10:01:51;114.78;;;108.40;;
21991;SDS011;11160;51.576;0.194;2022-08-01T10:04:19;130.43;;;123.10;;
21991;SDS011;11160;51.576;0.194;2022-08-01T10:06:47;111.53;;;105.18;;
21991;SDS011;11160;51.576;0.194;2022-08-01T10:09:27;100.53;;;94.82;;
21991;SDS011;11160;51.576;0.194;2022-08-01T10:12:06;118.10;;;111.40;;
21991;SDS011;11160;51.576;0.194;2022-08-01T10:14:41;104.43;;;98.43;;
21991;SDS011;11160;51.576;0.194;2022-08-01T10:17:13;113.30;;;106.75;;
21991;SDS011;11160;51.576;0.194;2022-08-01T10:19:44;109.22;;;103.13;;
21991;SDS011;11160;51.576;0.194;2022-08-01T10:22:13;104.28;;;98.18;;
21991;SDS011;11160;51.576;0.194;2022-08-01T10:24:44;107.57;;;101.40;;
21991;SDS011;11160;51.576;0.194;2022-08-01T10:27:14;91.20;;;85.95;;
21991;SDS011;11160;51.576;0.194;2022-08-01T10:30:03;84.47;;;79.28;;
21991;SDS011;11160;51.576;0.194;2022-08-01T10:32:48;84.95;;;79.97;;
21991;SDS011;11160;51.576;0.194;2022-08-01T10:35:20;91.30;;;85.85;;
21991;SDS011;11160;51.576;0.194;2022-08-01T10:38:08;68.25;;;64.18;;
21991;SDS011;11160;51.576;0.194;2022-08-01T10:40:40;90.53;;;85.20;;
21991;SDS011;11160;51.576;0.194;2022-08-01T10:43:11;78.05;;;73.65;;
21991;SDS011;11160;51.576;0.194;2022-08-01T10:45:47;88.97;;;83.55;;
21991;SDS011;11160;51.576;0.194;2022-08-01T10:48:18;82.78;;;77.93;;
21991;SDS011;11160;51.576;0.194;2022-08-01T10:50:52;84.72;;;79.65;;
21991;SDS011;11160;51.576;0.194;2022-08-01T10:53:26;96.90;;;91.30;;
21991;SDS011;11160;51.576;0.194;2022-08-01T10:56:08;65.03;;;61.03;;
21991;SDS011;11160;51.576;0.194;2022-08-01T10:58:42;76.43;;;71.88;;
21991;SDS011;11160;51.576;0.194;2022-08-01T11:03:57;64.05;;;60.17;;
21991;SDS011;11160;51.576;0.194;2022-08-01T11:09:39;70.55;;;66.47;;
21991;SDS011;11160;51.576;0.194;2022-08-01T11:12:15;62.22;;;58.53;;
21991;SDS011;11160;51.576;0.194;2022-08-01T11:17:35;40.35;;;37.72;;
21991;SDS011;11160;51.576;0.194;2022-08-01T11:20:15;34.05;;;32.08;;
21991;SDS011;11160;51.576;0.194;2022-08-01T11:28:25;34.30;;;32.33;;
21991;SDS011;11160;51.576;0.194;2022-08-01T11:41:14;34.10;;;32.00;;
21991;SDS011;11160;51.576;0.194;2022-08-01T11:44:06;21.98;;;20.63;;
21991;SDS011;11160;51.576;0.194;2022-08-01T11:54:38;44.70;;;42.00;;
21991;SDS011;11160;51.576;0.194;2022-08-01T11:57:27;32.03;;;30.13;;
21991;SDS011;11160;51.576;0.194;2022-08-01T12:00:11;43.63;;;40.95;;
21991;SDS011;11160;51.576;0.194;2022-08-01T12:02:42;50.20;;;47.25;;
21991;SDS011;11160;51.576;0.194;2022-08-01T12:05:13;51.15;;;48.00;;
21991;SDS011;11160;51.576;0.194;2022-08-01T12:07:43;55.70;;;52.38;;
21991;SDS011;11160;51.576;0.194;2022-08-01T12:10:16;61.17;;;57.42;;
21991;SDS011;11160;51.576;0.194;2022-08-01T12:12:49;35.72;;;33.55;;
21991;SDS011;11160;51.576;0.194;2022-08-01T12:15:22;28.35;;;26.67;;
21991;SDS011;11160;51.576;0.194;2022-08-01T12:18:00;25.77;;;24.40;;
21991;SDS011;11160;51.576;0.194;2022-08-01T12:23:01;30.55;;;28.90;;
21991;SDS011;11160;51.576;0.194;2022-08-01T12:25:32;26.88;;;25.40;;
21991;SDS011;11160;51.576;0.194;2022-08-01T12:28:02;33.55;;;31.55;;
21991;SDS011;11160;51.576;0.194;2022-08-01T12:30:55;26.88;;;25.25;;
21991;SDS011;11160;51.576;0.194;2022-08-01T12:33:23;37.50;;;35.15;;
21991;SDS011;11160;51.576;0.194;2022-08-01T12:36:01;26.58;;;24.98;;
21991;SDS011;11160;51.576;0.194;2022-08-01T12:38:42;37.80;;;35.40;;
21991;SDS011;11160;51.576;0.194;2022-08-01T12:41:11;49.03;;;45.85;;
21991;SDS011;11160;51.576;0.194;2022-08-01T12:43:41;47.60;;;44.70;;
21991;SDS011;11160;51.576;0.194;2022-08-01T12:46:08;39.13;;;36.80;;
21991;SDS011;11160;51.576;0.194;2022-08-01T12:48:42;40.88;;;38.38;;
21991;SDS011;11160;51.576;0.194;2022-08-01T12:51:10;55.03;;;51.65;;
21991;SDS011;11160;51.576;0.194;2022-08-01T12:53:38;38.97;;;36.70;;
21991;SDS011;11160;51.576;0.194;2022-08-01T12:56:07;45.03;;;42.05;;
21991;SDS011;11160;51.576;0.194;2022-08-01T12:58:37;43.63;;;40.95;;
21991;SDS011;11160;51.576;0.194;2022-08-01T13:01:05;31.80;;;29.92;;
21991;SDS011;11160;51.576;0.194;2022-08-01T13:03:38;28.63;;;27.00;;
21991;SDS011;11160;51.576;0.194;2022-08-01T13:06:14;25.15;;;23.55;;
21991;SDS011;11160;51.576;0.194;2022-08-01T13:08:44;27.90;;;26.38;;
21991;SDS011;11160;51.576;0.194;2022-08-01T13:11:12;37.67;;;35.75;;
21991;SDS011;11160;51.576;0.194;2022-08-01T13:13:48;56.42;;;53.42;;
21991;SDS011;11160;51.576;0.194;2022-08-01T13:16:17;68.93;;;65.10;;
21991;SDS011;11160;51.576;0.194;2022-08-01T13:19:03;105.65;;;99.63;;
21991;SDS011;11160;51.576;0.194;2022-08-01T13:21:32;65.85;;;62.10;;
21991;SDS011;11160;51.576;0.194;2022-08-01T13:24:27;72.05;;;67.68;;
21991;SDS011;11160;51.576;0.194;2022-08-01T13:27:02;80.30;;;75.68;;
21991;SDS011;11160;51.576;0.194;2022-08-01T13:29:39;63.35;;;59.47;;
21991;SDS011;11160;51.576;0.194;2022-08-01T13:32:16;90.75;;;85.47;;
21991;SDS011;11160;51.576;0.194;2022-08-01T13:35:00;48.15;;;45.45;;
21991;SDS011;11160;51.576;0.194;2022-08-01T13:37:33;44.47;;;42.13;;
21991;SDS011;11160;51.576;0.194;2022-08-01T13:40:02;49.10;;;46.35;;
21991;SDS011;11160;51.576;0.194;2022-08-01T13:42:30;46.50;;;43.80;;
21991;SDS011;11160;51.576;0.194;2022-08-01T13:45:05;28.88;;;27.27;;
21991;SDS011;11160;51.576;0.194;2022-08-01T13:47:40;81.03;;;76.00;;
21991;SDS011;11160;51.576;0.194;2022-08-01T13:50:30;83.75;;;79.13;;
21991;SDS011;11160;51.576;0.194;2022-08-01T13:52:58;137.57;;;129.25;;
21991;SDS011;11160;51.576;0.194;2022-08-01T13:55:25;291.83;;;270.83;;
21991;SDS011;11160;51.576;0.194;2022-08-01T13:57:59;259.58;;;242.75;;
21991;SDS011;11160;51.576;0.194;2022-08-01T14:00:26;309.83;;;288.05;;
21991;SDS011;11160;51.576;0.194;2022-08-01T14:02:54;279.90;;;262.10;;
21991;SDS011;11160;51.576;0.194;2022-08-01T14:05:21;211.32;;;198.77;;
21991;SDS011;11160;51.576;0.194;2022-08-01T14:07:48;144.63;;;136.95;;
21991;SDS011;11160;51.576;0.194;2022-08-01T14:10:21;160.45;;;151.68;;
21991;SDS011;11160;51.576;0.194;2022-08-01T14:12:49;186.55;;;175.25;;
21991;SDS011;11160;51.576;0.194;2022-08-01T14:15:17;114.22;;;108.03;;
21991;SDS011;11160;51.576;0.194;2022-08-01T14:18:05;113.20;;;106.70;;
21991;SDS011;11160;51.576;0.194;2022-08-01T14:20:35;110.43;;;104.28;;
21991;SDS011;11160;51.576;0.194;2022-08-01T14:23:03;112.25;;;105.45;;
21991;SDS011;11160;51.576;0.194;2022-08-01T14:25:37;100.57;;;94.13;;
21991;SDS011;11160;51.576;0.194;2022-08-01T14:28:25;34.67;;;32.88;;
21991;SDS011;11160;51.576;0.194;2022-08-01T14:30:54;69.77;;;65.63;;
21991;SDS011;11160;51.576;0.194;2022-08-01T14:33:23;46.72;;;44.03;;
21991;SDS011;11160;51.576;0.194;2022-08-01T14:35:50;57.42;;;54.13;;
21991;SDS011;11160;51.576;0.194;2022-08-01T14:38:37;54.10;;;50.88;;
21991;SDS011;11160;51.576;0.194;2022-08-01T14:41:04;49.30;;;46.40;;
21991;SDS011;11160;51.576;0.194;2022-08-01T14:43:32;57.65;;;54.22;;
21991;SDS011;11160;51.576;0.194;2022-08-01T14:46:02;55.60;;;52.38;;
21991;SDS011;11160;51.576;0.194;2022-08-01T14:48:30;56.25;;;52.63;;
21991;SDS011;11160;51.576;0.194;2022-08-01T14:50:58;50.38;;;47.40;;
21991;SDS011;11160;51.576;0.194;2022-08-01T14:53:29;45.63;;;43.13;;
21991;SDS011;11160;51.576;0.194;2022-08-01T14:58:26;25.90;;;24.30;;
21991;SDS011;11160;51.576;0.194;2022-08-01T15:00:53;36.83;;;34.78;;
21991;SDS011;11160;51.576;0.194;2022-08-01T15:03:24;46.83;;;44.20;;
21991;SDS011;11160;51.576;0.194;2022-08-01T15:05:51;55.00;;;51.55;;
21991;SDS011;11160;51.576;0.194;2022-08-01T15:08:19;42.13;;;39.80;;
21991;SDS011;11160;51.576;0.194;2022-08-01T15:10:46;44.15;;;41.67;;
21991;SDS011;11160;51.576;0.194;2022-08-01T15:13:13;36.85;;;34.88;;
21991;SDS011;11160;51.576;0.194;2022-08-01T15:15:40;40.05;;;37.53;;
21991;SDS011;11160;51.576;0.194;2022-08-01T15:18:07;54.15;;;50.90;;
21991;SDS011;11160;51.576;0.194;2022-08-01T15:20:35;45.30;;;42.63;;
21991;SDS011;11160;51.576;0.194;2022-08-01T15:23:02;45.97;;;43.33;;
21991;SDS011;11160;51.576;0.194;2022-08-01T15:25:30;51.53;;;48.45;;
21991;SDS011;11160;51.576;0.194;2022-08-01T15:28:08;47.15;;;44.25;;
21991;SDS011;11160;51.576;0.194;2022-08-01T15:30:36;68.00;;;64.03;;
21991;SDS011;11160;51.576;0.194;2022-08-01T15:33:03;48.80;;;45.90;;
21991;SDS011;11160;51.576;0.194;2022-08-01T15:35:31;53.67;;;50.65;;
21991;SDS011;11160;51.576;0.194;2022-08-01T15:37:58;39.72;;;37.42;;
21991;SDS011;11160;51.576;0.194;2022-08-01T15:40:25;78.35;;;73.47;;
21991;SDS011;11160;51.576;0.194;2022-08-01T15:42:57;58.22;;;54.78;;
21991;SDS011;11160;51.576;0.194;2022-08-01T15:45:25;49.50;;;46.35;;
21991;SDS011;11160;51.576;0.194;2022-08-01T15:48:12;43.40;;;40.92;;
21991;SDS011;11160;51.576;0.194;2022-08-01T15:50:40;70.88;;;66.78;;